Time;durP1;ratioP1;P1;durP2;ratioP2;P2;SDS_P1;SDS_P2;PMS_P1;PMS_P2;Temp;Humidity;BMP_temperature;BMP_pressure;BME280_temperature;BME280_humidity;BME280_pressure;Samples;Min_cycle;Max_cycle;Signal;HPM_P1;HPM_P2
2021/06/23 00:01:45;;;;;;;48.92;7.75;;;;;;;20.67;80.30;99323.83;1620175;87;21499;-76
2021/06/23 00:04:11;;;;;;;38.88;6.28;;;;;;;20.54;80.42;99324.73;1655745;85;20999;-76
2021/06/23 00:06:38;;;;;;;46.40;7.25;;;;;;;20.40;80.44;99329.61;1650274;84;21001;-76
2021/06/23 00:09:05;;;;;;;40.65;7.30;;;;;;;20.29;81.09;99334.27;1625509;87;21515;-76
2021/06/23 00:11:45;;;;;;;34.30;6.42;;;;;;;20.17;81.83;99330.41;1629625;86;21439;-76
2021/06/23 00:14:12;;;;;;;38.10;7.35;;;;;;;20.07;82.27;99333.31;1610639;87;20980;-76
2021/06/23 00:16:41;;;;;;;38.78;7.45;;;;;;;19.97;82.68;99333.20;1615847;87;20929;-76
2021/06/23 00:19:09;;;;;;;38.05;6.92;;;;;;;19.88;82.87;99331.33;1604847;87;20949;-76
2021/06/23 00:21:35;;;;;;;38.67;6.42;;;;;;;19.79;82.98;99334.42;1625659;87;21159;-75
2021/06/23 00:24:02;;;;;;;43.33;7.40;;;;;;;19.75;83.10;99343.33;1617477;87;21031;-75
2021/06/23 00:26:28;;;;;;;35.30;6.33;;;;;;;19.69;83.51;99351.23;1621939;87;20960;-76
2021/06/23 00:28:54;;;;;;;39.23;6.37;;;;;;;19.62;83.52;99347.59;1600690;87;20975;-75
2021/06/23 00:31:22;;;;;;;71.02;14.28;;;;;;;19.55;83.68;99350.30;1655279;85;21010;-77
2021/06/23 00:33:48;;;;;;;46.90;11.40;;;;;;;19.44;84.18;99352.33;1662786;85;21473;-77
2021/06/23 00:36:17;;;;;;;38.70;10.63;;;;;;;19.38;84.47;99346.09;1646700;85;21000;-76
2021/06/23 00:38:45;;;;;;;53.80;11.25;;;;;;;19.30;84.69;99341.61;1635221;85;21053;-76
2021/06/23 00:41:17;;;;;;;43.35;11.40;;;;;;;19.23;84.97;99345.70;1636205;85;21002;-75
2021/06/23 00:43:44;;;;;;;45.15;9.13;;;;;;;19.17;85.56;99340.25;1659249;86;20980;-75
2021/06/23 00:46:12;;;;;;;47.75;8.33;;;;;;;19.10;85.69;99348.72;1655510;85;21791;-76
2021/06/23 00:48:39;;;;;;;43.30;8.98;;;;;;;19.05;86.25;99349.08;1661990;85;20933;-76
2021/06/23 00:51:06;;;;;;;40.35;7.25;;;;;;;18.99;86.50;99349.19;1632105;87;21514;-76
2021/06/23 00:53:46;;;;;;;50.48;9.78;;;;;;;18.94;86.58;99348.13;1602980;87;21487;-75
2021/06/23 00:56:15;;;;;;;35.13;6.72;;;;;;;18.87;86.67;99345.25;1651356;86;20894;-77
2021/06/23 00:58:44;;;;;;;22.70;6.17;;;;;;;18.78;86.82;99346.91;1639644;85;21047;-76
2021/06/23 01:01:12;;;;;;;39.92;7.03;;;;;;;18.73;87.09;99350.02;1632204;85;20974;-77
2021/06/23 01:03:39;;;;;;;37.00;6.97;;;;;;;18.68;87.14;99344.77;1646227;85;21033;-76
2021/06/23 01:06:09;;;;;;;42.80;7.45;;;;;;;18.65;87.32;99346.11;1632927;87;20963;-76
2021/06/23 01:08:36;;;;;;;39.25;6.75;;;;;;;18.61;87.55;99346.64;1621503;87;21185;-76
2021/06/23 01:11:06;;;;;;;32.55;7.12;;;;;;;18.57;87.89;99349.92;1608104;87;21165;-76
2021/06/23 01:13:37;;;;;;;39.55;6.17;;;;;;;18.53;88.21;99353.23;1621394;87;21115;-76
2021/06/23 01:16:08;;;;;;;35.00;6.97;;;;;;;18.48;88.58;99345.43;1667406;84;21492;-76
2021/06/23 01:18:36;;;;;;;34.45;6.80;;;;;;;18.44;88.57;99348.77;1656172;85;21619;-76
2021/06/23 01:21:05;;;;;;;35.50;7.72;;;;;;;18.39;88.74;99342.14;1657056;85;21122;-76
2021/06/23 01:23:33;;;;;;;37.78;7.55;;;;;;;18.35;88.88;99337.70;1635158;85;21165;-77
2021/06/23 01:25:59;;;;;;;32.75;6.78;;;;;;;18.31;89.00;99337.64;1659255;85;21160;-75
2021/06/23 01:28:27;;;;;;;35.10;6.37;;;;;;;18.29;89.33;99335.82;1614393;87;21087;-76
2021/06/23 01:31:04;;;;;;;35.20;6.15;;;;;;;18.28;89.66;99327.27;1624894;87;21091;-74
2021/06/23 01:33:32;;;;;;;26.80;5.80;;;;;;;18.28;90.07;99325.08;1618079;86;21094;-74
2021/06/23 01:35:59;;;;;;;32.10;6.35;;;;;;;18.27;90.38;99327.64;1607907;87;21157;-74
2021/06/23 01:38:27;;;;;;;31.73;6.67;;;;;;;18.26;90.20;99331.00;1615307;87;20888;-75
2021/06/23 01:40:54;;;;;;;32.83;6.25;;;;;;;18.25;90.17;99336.34;1626813;87;21649;-75
2021/06/23 01:43:21;;;;;;;27.22;5.85;;;;;;;18.22;90.52;99335.70;1569514;90;20980;-75
2021/06/23 01:45:49;;;;;;;28.60;6.10;;;;;;;18.22;90.98;99332.92;1612818;87;21565;-75
2021/06/23 01:48:22;;;;;;;28.62;6.10;;;;;;;18.21;91.22;99331.31;1624499;88;21084;-75
2021/06/23 01:50:57;;;;;;;30.57;5.58;;;;;;;18.20;91.03;99337.25;1624926;87;21205;-76
2021/06/23 01:53:27;;;;;;;21.37;5.72;;;;;;;18.18;90.96;99338.20;1569860;90;20982;-76
2021/06/23 01:55:54;;;;;;;19.98;4.97;;;;;;;18.15;91.06;99334.99;1601344;88;21087;-76
2021/06/23 01:58:22;;;;;;;22.52;5.67;;;;;;;18.15;91.40;99331.41;1609801;89;20954;-75
2021/06/23 02:01:17;;;;;;;29.27;5.80;;;;;;;18.12;91.42;99332.16;1612316;87;21550;-75
2021/06/23 02:04:07;;;;;;;18.80;5.08;;;;;;;18.11;91.53;99331.94;1653457;86;21080;-75
2021/06/23 02:06:56;;;;;;;27.90;5.55;;;;;;;18.12;92.03;99328.80;1634660;85;21572;-75
2021/06/23 02:10:03;;;;;;;19.48;5.85;;;;;;;18.12;91.94;99330.18;1648303;85;21671;-75
2021/06/23 02:13:13;;;;;;;26.07;4.87;;;;;;;18.14;91.76;99329.81;1642977;85;21054;-75
2021/06/23 02:15:40;;;;;;;18.87;5.15;;;;;;;18.17;91.49;99332.44;1608886;87;21159;-75
2021/06/23 02:18:11;;;;;;;35.03;5.43;;;;;;;18.18;91.34;99332.06;1569007;90;21030;-74
2021/06/23 02:20:46;;;;;;;43.52;6.50;;;;;;;18.21;91.25;99336.08;1596632;87;21028;-75
2021/06/23 02:23:14;;;;;;;35.55;5.85;;;;;;;18.23;91.12;99339.28;1629787;87;21016;-74
2021/06/23 02:25:43;;;;;;;29.55;6.30;;;;;;;18.24;90.95;99342.27;1622448;87;21513;-75
2021/06/23 02:28:20;;;;;;;29.63;5.92;;;;;;;18.24;90.87;99337.52;1610567;87;21196;-75
2021/06/23 02:30:46;;;;;;;29.57;7.75;;;;;;;18.28;91.09;99341.75;1599685;85;21534;-74
2021/06/23 02:33:13;;;;;;;37.35;8.73;;;;;;;18.31;91.30;99336.25;1654752;84;20957;-75
2021/06/23 02:35:43;;;;;;;45.43;8.25;;;;;;;18.33;91.61;99346.41;1646343;86;20999;-75
2021/06/23 02:38:17;;;;;;;34.83;7.65;;;;;;;18.38;91.80;99343.31;1654390;85;21019;-75
2021/06/23 02:40:45;;;;;;;36.03;8.43;;;;;;;18.46;91.91;99351.17;1642522;86;21155;-76
2021/06/23 02:43:11;;;;;;;45.85;8.75;;;;;;;18.54;92.23;99352.86;1657059;86;21462;-75
2021/06/23 02:45:40;;;;;;;40.83;8.90;;;;;;;18.62;92.26;99352.42;1649450;86;21005;-75
2021/06/23 02:48:08;;;;;;;42.88;7.92;;;;;;;18.66;92.46;99354.08;1645253;86;21748;-76
2021/06/23 02:50:48;;;;;;;35.83;8.00;;;;;;;18.70;92.79;99356.33;1639676;85;21063;-77
2021/06/23 02:53:16;;;;;;;55.55;9.28;;;;;;;18.74;93.09;99356.38;1645641;85;21178;-75
2021/06/23 02:55:43;;;;;;;31.02;8.05;;;;;;;18.74;93.32;99358.57;1641947;85;21526;-76
2021/06/23 02:58:11;;;;;;;34.67;8.83;;;;;;;18.78;93.56;99353.06;1644601;85;20973;-76
2021/06/23 03:00:38;;;;;;;35.70;7.65;;;;;;;18.84;93.94;99357.12;1645322;85;21512;-76
2021/06/23 03:03:05;;;;;;;43.75;8.95;;;;;;;18.91;94.01;99352.25;1660635;85;21201;-77
2021/06/23 03:05:34;;;;;;;38.92;8.38;;;;;;;18.97;94.01;99348.77;1634917;85;20893;-73
2021/06/23 03:08:00;;;;;;;39.75;8.38;;;;;;;19.06;93.99;99349.88;1643939;86;21083;-75
2021/06/23 03:10:29;;;;;;;48.90;8.68;;;;;;;19.14;94.07;99353.73;1634437;86;21158;-77
2021/06/23 03:13:07;;;;;;;41.68;8.60;;;;;;;19.22;94.00;99344.90;1647706;86;21135;-76
2021/06/23 03:15:48;;;;;;;51.95;8.70;;;;;;;19.32;93.81;99347.60;1644778;85;21555;-77
2021/06/23 03:18:22;;;;;;;29.45;7.22;;;;;;;19.43;93.78;99342.38;1640720;86;21154;-78
2021/06/23 03:20:49;;;;;;;27.15;6.47;;;;;;;19.55;93.67;99341.94;1652607;86;21040;-77
2021/06/23 03:23:17;;;;;;;31.87;5.78;;;;;;;19.65;93.06;99337.86;1657363;85;21071;-78
2021/06/23 03:25:44;;;;;;;24.37;6.47;;;;;;;19.78;92.07;99340.59;1637725;86;21574;-77
2021/06/23 03:28:11;;;;;;;27.87;5.12;;;;;;;19.92;90.88;99336.34;1639777;85;21020;-77
2021/06/23 03:30:39;;;;;;;26.33;5.28;;;;;;;20.06;88.78;99339.27;1641966;86;21133;-77
2021/06/23 03:33:06;;;;;;;24.85;5.83;;;;;;;20.22;87.94;99340.41;1638904;86;21078;-77
2021/06/23 03:35:35;;;;;;;34.60;6.62;;;;;;;20.37;86.19;99345.69;1643633;86;21052;-78
2021/06/23 03:38:02;;;;;;;38.33;8.13;;;;;;;20.53;85.41;99344.64;1639090;86;21039;-77
2021/06/23 03:40:29;;;;;;;35.35;7.28;;;;;;;20.68;84.37;99346.34;1659610;85;21053;-77
2021/06/23 03:42:56;;;;;;;38.08;8.58;;;;;;;20.79;83.75;99349.20;1647807;85;21224;-77
2021/06/23 03:45:24;;;;;;;29.60;6.45;;;;;;;20.85;83.00;99349.81;1635611;86;20943;-78
2021/06/23 03:47:52;;;;;;;44.85;7.58;;;;;;;20.92;82.50;99342.09;1660503;85;20972;-75
2021/06/23 03:50:19;;;;;;;33.75;7.03;;;;;;;20.98;82.48;99342.72;1656241;86;21035;-77
2021/06/23 03:52:48;;;;;;;40.12;7.35;;;;;;;21.02;82.69;99345.53;1660540;85;21036;-76
2021/06/23 03:55:20;;;;;;;47.05;7.15;;;;;;;21.05;82.77;99341.36;1654239;85;21149;-77
2021/06/23 03:57:50;;;;;;;45.45;9.05;;;;;;;21.12;82.54;99341.20;1617058;86;20974;-75
2021/06/23 04:00:18;;;;;;;33.48;7.28;;;;;;;21.19;82.41;99334.25;1583112;89;21033;-76
2021/06/23 04:02:47;;;;;;;33.05;7.12;;;;;;;21.25;82.40;99331.32;1605170;89;21064;-75
2021/06/23 04:05:16;;;;;;;28.60;7.30;;;;;;;21.30;81.82;99331.74;1604098;89;20991;-78
2021/06/23 04:07:44;;;;;;;36.05;9.83;;;;;;;21.38;81.37;99332.55;1607846;88;21793;-78
2021/06/23 04:10:13;;;;;;;41.55;11.95;;;;;;;21.45;81.04;99336.76;1603736;89;20948;-76
2021/06/23 04:12:39;;;;;;;51.85;13.62;;;;;;;21.53;80.62;99330.00;1602707;89;21123;-78
2021/06/23 04:15:10;;;;;;;46.28;11.57;;;;;;;21.63;80.58;99336.81;1602439;89;21670;-78
2021/06/23 04:17:38;;;;;;;37.10;11.90;;;;;;;21.71;80.95;99338.44;1603507;89;21115;-78
2021/06/23 04:20:07;;;;;;;44.38;10.00;;;;;;;21.77;80.13;99344.44;1602997;89;21545;-84
2021/06/23 04:22:42;;;;;;;35.28;9.45;;;;;;;21.82;79.71;99344.05;1610270;88;21640;-75
2021/06/23 04:25:11;;;;;;;35.88;8.60;;;;;;;21.85;79.53;99340.47;1594755;89;20959;-76
2021/06/23 04:27:39;;;;;;;34.30;8.60;;;;;;;21.89;79.17;99341.27;1585080;89;20978;-77
2021/06/23 04:30:10;;;;;;;35.65;8.43;;;;;;;21.98;78.71;99344.45;1576793;91;20953;-76
2021/06/23 04:32:38;;;;;;;35.80;7.25;;;;;;;22.02;78.65;99343.89;1576844;91;21554;-77
2021/06/23 04:35:07;;;;;;;34.40;7.60;;;;;;;22.07;77.95;99346.30;1575966;91;21006;-77
2021/06/23 04:37:35;;;;;;;31.85;6.72;;;;;;;22.14;78.24;99348.30;1576596;91;21033;-77
2021/06/23 04:40:06;;;;;;;25.52;6.47;;;;;;;22.24;78.04;99351.70;1576630;89;20986;-77
2021/06/23 04:42:34;;;;;;;29.45;7.03;;;;;;;22.37;77.30;99357.90;1585798;89;21011;-76
2021/06/23 04:45:04;;;;;;;27.95;5.90;;;;;;;22.49;76.10;99360.09;1604313;89;21064;-76
2021/06/23 04:47:34;;;;;;;29.75;5.40;;;;;;;22.57;76.05;99360.27;1604045;89;21059;-78
2021/06/23 04:50:00;;;;;;;33.08;5.78;;;;;;;22.69;76.28;99361.25;1604051;89;21503;-76
2021/06/23 04:52:29;;;;;;;34.38;6.42;;;;;;;22.80;75.83;99354.28;1600363;89;21040;-78
2021/06/23 04:54:55;;;;;;;20.02;4.70;;;;;;;22.95;74.97;99355.84;1604238;89;20963;-80
2021/06/23 04:57:22;;;;;;;17.27;5.33;;;;;;;23.11;74.61;99349.81;1604087;89;21525;-79
2021/06/23 04:59:49;;;;;;;30.80;5.60;;;;;;;23.27;74.33;99344.53;1680011;84;21421;-81
2021/06/23 05:02:16;;;;;;;25.97;4.70;;;;;;;23.43;73.37;99342.66;1671887;84;21049;-79
2021/06/23 05:04:44;;;;;;;19.00;4.65;;;;;;;23.57;71.99;99339.83;1689432;84;21036;-78
2021/06/23 05:07:11;;;;;;;24.60;5.03;;;;;;;23.73;71.97;99342.12;1677778;84;21415;-77
2021/06/23 05:09:38;;;;;;;23.75;4.70;;;;;;;23.86;70.49;99330.02;1661877;84;21088;-77
2021/06/23 05:12:07;;;;;;;29.63;5.00;;;;;;;24.00;70.30;99336.14;1680476;84;21587;-77
2021/06/23 05:14:34;;;;;;;18.23;4.58;;;;;;;24.13;69.91;99334.45;1673228;84;20886;-76
2021/06/23 05:17:04;;;;;;;27.00;4.55;;;;;;;24.28;69.08;99336.54;1657504;84;20949;-77
2021/06/23 05:19:30;;;;;;;24.75;4.72;;;;;;;24.41;68.85;99335.44;1691788;84;21449;-78
2021/06/23 05:22:03;;;;;;;20.48;4.60;;;;;;;24.52;68.61;99324.91;1680295;84;21162;-78
2021/06/23 05:24:26;;;;;;;32.85;5.58;;;;;;;24.62;67.81;99317.00;1670880;84;21009;-78
2021/06/23 05:26:52;;;;;;;26.65;6.28;;;;;;;24.73;67.38;99316.90;1685389;84;20938;-77
2021/06/23 05:29:19;;;;;;;33.50;7.47;;;;;;;24.81;66.74;99319.22;1678413;84;21170;-79
2021/06/23 05:31:45;;;;;;;32.70;8.80;;;;;;;24.87;65.58;99318.13;1666679;84;20992;-78
2021/06/23 05:34:12;;;;;;;39.20;10.43;;;;;;;24.91;65.96;99312.66;1657397;84;21532;-77
2021/06/23 05:36:39;;;;;;;31.62;7.95;;;;;;;24.95;66.10;99323.25;1666130;84;21014;-77
2021/06/23 05:39:05;;;;;;;26.12;6.05;;;;;;;24.96;65.44;99310.83;1662967;84;20951;-77
2021/06/23 05:41:32;;;;;;;30.88;5.35;;;;;;;25.02;65.75;99312.58;1671549;84;20916;-78
2021/06/23 05:43:59;;;;;;;26.07;5.60;;;;;;;25.08;65.70;99308.70;1692773;84;21073;-78
2021/06/23 05:46:25;;;;;;;23.47;4.92;;;;;;;25.16;64.68;99306.80;1666341;84;21768;-78
2021/06/23 05:48:52;;;;;;;15.75;4.83;;;;;;;25.23;64.17;99294.06;1676526;84;21502;-78
2021/06/23 05:51:18;;;;;;;24.72;4.05;;;;;;;25.31;64.22;99291.97;1678057;84;20910;-78
2021/06/23 05:53:45;;;;;;;18.00;4.10;;;;;;;25.39;63.83;99292.05;1685703;84;20980;-77
2021/06/23 05:56:13;;;;;;;15.35;3.67;;;;;;;25.47;63.69;99291.33;1677953;84;20966;-78
2021/06/23 05:58:40;;;;;;;19.37;4.05;;;;;;;25.55;63.21;99281.58;1664495;84;21158;-78
2021/06/23 06:01:06;;;;;;;18.92;4.58;;;;;;;25.61;63.46;99279.89;1658645;84;21448;-78
2021/06/23 06:03:34;;;;;;;21.25;4.87;;;;;;;25.63;63.36;99275.43;1678667;84;20968;-76
2021/06/23 06:06:02;;;;;;;21.97;3.80;;;;;;;25.65;63.50;99277.84;1677213;84;20965;-77
2021/06/23 06:08:28;;;;;;;23.22;3.77;;;;;;;25.65;64.02;99274.43;1673411;84;21410;-76
2021/06/23 06:10:57;;;;;;;14.53;3.87;;;;;;;25.66;63.71;99280.84;1665689;85;21534;-77
2021/06/23 06:13:23;;;;;;;20.48;4.30;;;;;;;25.67;62.74;99276.81;1674848;84;20970;-77
2021/06/23 06:15:50;;;;;;;15.50;3.70;;;;;;;25.70;63.04;99279.39;1673748;84;21026;-77
2021/06/23 06:18:16;;;;;;;28.38;4.08;;;;;;;25.71;62.99;99276.77;1655452;84;21059;-78
2021/06/23 06:20:43;;;;;;;18.95;3.77;;;;;;;25.77;63.61;99284.91;1678436;84;21021;-78
2021/06/23 06:23:09;;;;;;;25.15;4.40;;;;;;;25.86;63.91;99284.56;1692649;84;22079;-78
2021/06/23 06:25:36;;;;;;;17.85;3.98;;;;;;;25.95;63.73;99283.42;1674706;84;20937;-78
2021/06/23 06:28:03;;;;;;;14.63;4.42;;;;;;;26.07;64.40;99284.02;1683898;84;21112;-78
2021/06/23 06:30:29;;;;;;;14.05;4.22;;;;;;;26.18;63.16;99279.01;1684773;84;20952;-78
2021/06/23 06:32:56;;;;;;;14.95;4.50;;;;;;;26.33;63.43;99286.02;1672798;84;21533;-78
2021/06/23 06:35:22;;;;;;;14.90;5.22;;;;;;;26.46;62.67;99281.36;1671064;84;21112;-77
2021/06/23 06:37:50;;;;;;;12.85;4.20;;;;;;;26.58;62.18;99279.92;1670825;84;21433;-76
2021/06/23 06:40:16;;;;;;;17.32;5.20;;;;;;;26.69;61.99;99280.52;1677589;84;20931;-77
2021/06/23 06:42:43;;;;;;;19.02;4.97;;;;;;;26.78;62.19;99281.36;1614015;85;21004;-77
2021/06/23 06:45:10;;;;;;;14.35;4.25;;;;;;;26.90;62.27;99278.70;1651226;84;20968;-77
2021/06/23 06:47:37;;;;;;;11.08;3.67;;;;;;;27.01;60.68;99268.66;1616099;87;21143;-77
2021/06/23 06:50:06;;;;;;;20.72;3.95;;;;;;;27.12;58.93;99271.27;1620908;87;21451;-77
2021/06/23 06:52:32;;;;;;;15.85;3.60;;;;;;;27.26;59.89;99261.86;1619237;87;21537;-80
2021/06/23 06:54:59;;;;;;;23.27;3.77;;;;;;;27.47;59.39;99266.24;1637470;86;21051;-77
2021/06/23 06:57:25;;;;;;;15.45;4.15;;;;;;;27.67;58.40;99264.02;1643447;84;21530;-82
2021/06/23 06:59:52;;;;;;;14.33;3.83;;;;;;;27.82;57.92;99258.20;1642847;87;21169;-79
2021/06/23 07:02:18;;;;;;;13.35;3.47;;;;;;;27.89;56.93;99260.85;1685943;84;20988;-81
2021/06/23 07:04:45;;;;;;;14.58;3.47;;;;;;;27.91;56.46;99261.20;1682486;84;21045;-80
2021/06/23 07:07:11;;;;;;;16.00;3.45;;;;;;;27.92;57.11;99272.66;1677779;84;20989;-77
2021/06/23 07:09:39;;;;;;;16.70;3.77;;;;;;;27.94;57.52;99267.38;1676924;84;20939;-77
2021/06/23 07:12:07;;;;;;;16.55;3.25;;;;;;;28.02;57.74;99272.23;1681190;84;21910;-83
2021/06/23 07:14:33;;;;;;;11.93;3.52;;;;;;;28.17;57.57;99274.27;1681794;84;20862;-78
2021/06/23 07:17:00;;;;;;;11.38;3.58;;;;;;;28.37;58.39;99279.81;1676489;84;21496;-79
2021/06/23 07:19:26;;;;;;;14.25;3.60;;;;;;;28.56;58.39;99287.99;1661202;84;20912;-80
2021/06/23 07:21:52;;;;;;;13.25;3.70;;;;;;;28.73;56.20;99288.75;1663481;84;21019;-87
2021/06/23 07:24:19;;;;;;;12.75;3.60;;;;;;;28.93;56.78;99293.65;1657346;84;21116;-80
2021/06/23 07:26:48;;;;;;;12.07;3.42;;;;;;;29.12;55.75;99291.91;1671944;84;20902;-79
2021/06/23 07:29:16;;;;;;;14.93;4.20;;;;;;;29.25;54.59;99291.33;1673235;84;21104;-79
2021/06/23 07:31:55;;;;;;;15.08;3.70;;;;;;;29.35;53.63;99297.91;1668774;84;20958;-78
2021/06/23 07:34:21;;;;;;;19.48;3.85;;;;;;;29.49;54.26;99294.03;1660821;84;21065;-78
2021/06/23 07:36:48;;;;;;;9.28;3.20;;;;;;;29.68;54.51;99290.05;1697645;84;20893;-78
2021/06/23 07:39:15;;;;;;;13.10;3.37;;;;;;;29.88;53.28;99288.58;1661690;84;21502;-77
2021/06/23 07:41:47;;;;;;;17.37;6.47;;;;;;;30.06;52.95;99285.18;1657614;84;20986;-77
2021/06/23 07:44:16;;;;;;;12.58;5.22;;;;;;;30.23;52.12;99278.14;1662508;85;21513;-77
2021/06/23 07:46:48;;;;;;;18.62;4.22;;;;;;;30.43;51.79;99286.37;1681852;84;21509;-78
2021/06/23 07:49:12;;;;;;;19.12;4.15;;;;;;;30.58;51.62;99283.86;1669225;84;21133;-79
2021/06/23 08:10:27;;;;;;;22.42;4.30;;;;;;;31.71;47.90;99268.91;1655765;84;20957;-79
2021/06/23 08:12:58;;;;;;;10.25;3.30;;;;;;;31.78;47.53;99270.64;1670899;84;20996;-78
2021/06/23 08:15:29;;;;;;;17.98;3.80;;;;;;;31.83;46.58;99269.41;1682949;84;21839;-77
2021/06/23 08:17:56;;;;;;;15.63;3.87;;;;;;;31.88;45.53;99266.58;1678417;84;21887;-77
2021/06/23 08:20:23;;;;;;;20.35;3.67;;;;;;;31.93;44.34;99260.30;1675626;84;21325;-79
2021/06/23 08:22:49;;;;;;;13.53;3.75;;;;;;;32.02;45.76;99261.74;1679165;84;21007;-76
2021/06/23 08:25:16;;;;;;;21.33;4.33;;;;;;;32.15;45.06;99261.63;1614723;87;21066;-75
2021/06/23 08:27:44;;;;;;;21.17;4.62;;;;;;;32.23;43.50;99267.20;1604200;87;21297;-76
2021/06/23 08:30:11;;;;;;;16.15;3.65;;;;;;;32.25;44.66;99269.56;1602000;88;21078;-76
2021/06/23 08:32:38;;;;;;;50.35;7.72;;;;;;;32.29;44.72;99265.95;1615588;87;21140;-76
2021/06/23 08:35:06;;;;;;;53.75;7.17;;;;;;;32.39;44.70;99264.67;1623897;87;21585;-76
2021/06/23 08:37:33;;;;;;;40.58;6.33;;;;;;;32.57;44.69;99264.70;1622672;87;21474;-77
2021/06/23 08:39:59;;;;;;;26.55;4.60;;;;;;;32.76;45.53;99267.73;1612747;87;21687;-77
2021/06/23 08:42:25;;;;;;;9.70;3.58;;;;;;;32.94;45.02;99278.28;1609050;87;21085;-76
2021/06/23 08:44:52;;;;;;;11.40;3.27;;;;;;;33.08;44.60;99271.16;1620923;87;21131;-77
2021/06/23 08:47:18;;;;;;;9.88;3.05;;;;;;;33.15;43.94;99269.42;1615714;87;21567;-77
2021/06/23 08:49:46;;;;;;;6.58;3.00;;;;;;;33.22;43.50;99267.67;1617565;87;21415;-76
2021/06/23 08:52:13;;;;;;;13.98;3.15;;;;;;;33.36;44.05;99283.32;1612606;87;21867;-77
2021/06/23 08:54:41;;;;;;;7.75;2.80;;;;;;;33.61;43.93;99279.27;1617034;87;21019;-77
2021/06/23 08:57:08;;;;;;;7.40;2.90;;;;;;;33.89;42.48;99277.94;1619367;87;21038;-77
2021/06/23 08:59:35;;;;;;;5.12;3.08;;;;;;;33.94;40.66;99277.91;1624855;87;21768;-76
2021/06/23 09:02:01;;;;;;;8.93;3.17;;;;;;;33.98;41.26;99273.62;1576754;87;21487;-74
2021/06/23 09:04:28;;;;;;;9.13;3.08;;;;;;;34.04;42.45;99273.12;1622088;87;21173;-73
2021/06/23 09:06:58;;;;;;;9.58;2.80;;;;;;;33.92;41.62;99277.60;1592718;86;21086;-75
2021/06/23 09:09:35;;;;;;;10.68;3.10;;;;;;;33.70;42.48;99279.24;1621320;87;20927;-74
2021/06/23 09:12:05;;;;;;;8.70;3.50;;;;;;;33.67;43.58;99283.05;1611939;87;21109;-76
2021/06/23 09:14:33;;;;;;;10.72;3.72;;;;;;;33.78;42.02;99284.11;1612515;87;21010;-77
2021/06/23 09:17:15;;;;;;;11.18;3.15;;;;;;;34.02;42.28;99277.72;1630113;87;21139;-76
2021/06/23 09:19:47;;;;;;;;;;;;;;;34.36;42.70;99282.11;1618265;87;21478;-75
2021/06/23 09:22:39;;;;;;;10.38;3.05;;;;;;;34.73;42.13;99276.92;1609087;87;20577;-76
2021/06/23 09:25:14;;;;;;;8.93;2.52;;;;;;;35.04;39.56;99276.52;1611717;87;21992;-76
2021/06/23 09:27:56;;;;;;;11.12;2.90;;;;;;;35.25;39.39;99282.47;1602765;88;21118;-75
2021/06/23 09:30:35;;;;;;;7.67;3.00;;;;;;;35.47;38.08;99289.25;1618402;87;21161;-77
2021/06/23 09:33:20;;;;;;;9.93;3.22;;;;;;;35.65;37.35;99289.69;1622674;86;21241;-76
2021/06/23 09:35:59;;;;;;;6.65;2.92;;;;;;;35.87;36.61;99291.48;1611542;87;21257;-76
2021/06/23 09:38:33;;;;;;;7.20;3.10;;;;;;;36.08;34.73;99302.97;1624007;86;21484;-75
2021/06/23 09:41:00;;;;;;;6.45;3.55;;;;;;;36.00;33.46;99305.45;1624192;87;21025;-76
2021/06/23 09:43:41;;;;;;;12.15;3.33;;;;;;;35.78;31.78;99305.88;1618326;87;21124;-76
2021/06/23 09:46:27;;;;;;;16.37;3.87;;;;;;;35.53;33.08;99305.84;1626770;86;21058;-76
2021/06/23 09:49:15;;;;;;;10.20;3.30;;;;;;;35.35;33.42;99310.30;1624721;87;21131;-76
2021/06/23 09:51:51;;;;;;;8.28;2.65;;;;;;;35.29;34.02;99308.74;1610620;87;21184;-76
2021/06/23 09:54:21;;;;;;;11.12;3.50;;;;;;;35.32;33.73;99303.52;1584947;89;21068;-76
2021/06/23 09:56:48;;;;;;;7.42;3.17;;;;;;;35.35;35.73;99311.73;1593705;89;21158;-76
2021/06/23 09:59:41;;;;;;;10.13;3.00;;;;;;;35.40;36.20;99303.91;1611815;87;20951;-76
2021/06/23 10:02:31;;;;;;;8.83;3.22;;;;;;;35.46;34.44;99311.94;1554595;90;21044;-76
2021/06/23 10:05:00;;;;;;;8.10;3.45;;;;;;;35.59;35.84;99305.94;1573270;89;21078;-75
2021/06/23 10:07:45;;;;;;;12.30;3.67;;;;;;;35.66;35.21;99303.47;1575980;89;21054;-75
2021/06/23 10:10:16;;;;;;;8.48;3.33;;;;;;;35.58;36.82;99300.08;1591190;89;21847;-75
2021/06/23 10:12:52;;;;;;;8.03;2.83;;;;;;;35.64;37.75;99305.24;1589318;89;21025;-75
2021/06/23 10:15:19;;;;;;;15.32;3.42;;;;;;;35.73;36.94;99313.70;1589148;89;20926;-75
2021/06/23 10:17:46;;;;;;;10.32;3.15;;;;;;;35.77;34.30;99304.30;1589562;89;21038;-75
2021/06/23 10:20:14;;;;;;;13.22;3.12;;;;;;;35.72;34.28;99308.63;1622446;87;21710;-75
2021/06/23 10:22:42;;;;;;;10.28;3.98;;;;;;;35.63;35.26;99305.09;1613136;87;21150;-75
2021/06/23 10:25:12;;;;;;;12.23;3.92;;;;;;;35.52;36.44;99310.61;1607433;87;21169;-75
2021/06/23 10:27:42;;;;;;;12.40;3.70;;;;;;;35.62;35.88;99315.73;1604623;87;21041;-75
2021/06/23 10:30:11;;;;;;;14.20;3.20;;;;;;;35.66;35.64;99309.82;1615688;87;21099;-74
2021/06/23 10:32:38;;;;;;;20.05;3.40;;;;;;;35.66;35.99;99309.82;1614391;87;21031;-76
2021/06/23 10:35:07;;;;;;;6.55;2.87;;;;;;;35.49;35.53;99310.95;1618165;87;21498;-76
2021/06/23 10:37:36;;;;;;;9.25;2.83;;;;;;;35.43;36.20;99315.77;1632788;87;21095;-76
2021/06/23 10:40:08;;;;;;;5.97;2.70;;;;;;;35.43;36.13;99307.85;1620775;87;20864;-76
2021/06/23 10:42:36;;;;;;;9.85;3.35;;;;;;;35.46;35.45;99311.15;1626820;87;21016;-76
2021/06/23 10:45:06;;;;;;;14.90;3.30;;;;;;;35.36;34.76;99315.52;1633161;87;21011;-76
2021/06/23 10:47:39;;;;;;;15.20;2.77;;;;;;;35.19;35.28;99311.56;1564712;90;21524;-76
2021/06/23 10:50:24;;;;;;;8.13;3.10;;;;;;;35.05;36.21;99315.97;1583345;89;21132;-76
2021/06/23 10:52:50;;;;;;;9.58;2.70;;;;;;;34.97;37.89;99318.26;1579301;89;21017;-76
2021/06/23 10:55:26;;;;;;;7.90;2.52;;;;;;;35.13;37.15;99314.95;1570034;89;21517;-77
2021/06/23 10:58:04;;;;;;;8.23;2.75;;;;;;;35.25;36.19;99320.98;1579288;88;21191;-76
2021/06/23 11:00:32;;;;;;;12.58;2.75;;;;;;;35.22;36.64;99324.85;1619524;87;21217;-76
2021/06/23 11:03:09;;;;;;;9.53;2.92;;;;;;;35.24;37.56;99327.22;1627135;87;21597;-76
2021/06/23 11:05:48;;;;;;;12.98;3.00;;;;;;;35.17;36.35;99331.88;1624832;87;21071;-76
2021/06/23 11:08:34;;;;;;;9.18;2.83;;;;;;;34.95;38.31;99329.36;1586408;87;21675;-76
2021/06/23 11:11:07;;;;;;;8.13;2.90;;;;;;;34.93;38.70;99322.72;1610991;86;21531;-75
2021/06/23 11:13:39;;;;;;;14.43;2.87;;;;;;;35.11;38.42;99321.78;1608675;87;21169;-76
2021/06/23 11:16:06;;;;;;;19.77;2.90;;;;;;;35.22;38.78;99326.28;1614894;87;21188;-76
2021/06/23 11:18:38;;;;;;;7.80;2.60;;;;;;;35.33;37.04;99335.05;1629939;86;20983;-75
2021/06/23 11:21:21;;;;;;;16.00;3.42;;;;;;;35.38;37.76;99335.80;1626674;86;21019;-76
2021/06/23 11:23:58;;;;;;;13.15;3.10;;;;;;;35.39;37.45;99330.87;1625034;87;21090;-76
2021/06/23 11:26:30;;;;;;;9.40;3.08;;;;;;;35.37;37.17;99318.52;1622640;87;21181;-76
2021/06/23 11:29:14;;;;;;;17.27;3.52;;;;;;;35.40;38.08;99331.81;1604136;87;21035;-76
2021/06/23 11:31:59;;;;;;;13.08;3.02;;;;;;;35.36;37.93;99320.44;1605648;87;21138;-75
2021/06/23 11:34:39;;;;;;;14.60;3.00;;;;;;;35.39;38.74;99320.25;1604909;87;20987;-76
2021/06/23 11:37:13;;;;;;;18.12;3.60;;;;;;;35.45;38.66;99322.42;1619323;87;21129;-76
2021/06/23 11:39:40;;;;;;;10.08;3.10;;;;;;;35.56;37.95;99319.77;1607308;87;21840;-75
2021/06/23 11:42:07;;;;;;;13.58;3.58;;;;;;;35.70;38.07;99327.54;1621161;87;21003;-75
2021/06/23 11:44:35;;;;;;;13.50;3.70;;;;;;;35.85;37.79;99323.25;1624783;86;21083;-75
2021/06/23 11:47:02;;;;;;;19.05;3.87;;;;;;;35.86;35.69;99318.47;1606704;87;21043;-75
2021/06/23 11:49:33;;;;;;;20.30;4.10;;;;;;;35.76;34.84;99319.06;1625078;87;21182;-76
2021/06/23 11:52:03;;;;;;;18.02;3.72;;;;;;;35.70;35.83;99323.26;1626530;87;21769;-75
2021/06/23 11:54:29;;;;;;;19.70;3.75;;;;;;;35.77;37.10;99325.71;1622073;86;20916;-76
2021/06/23 11:56:55;;;;;;;12.35;3.75;;;;;;;35.85;34.92;99318.32;1613331;87;20979;-76
2021/06/23 11:59:22;;;;;;;27.65;4.37;;;;;;;35.79;35.90;99316.05;1617634;87;21040;-75